sensor_id;sensor_type;location;lat;lon;timestamp;pressure;altitude;pressure_sealevel;temperature;humidity
71764;BME280;59602;52.142;5.408;2023-03-04T00:00:59;102831.38;;;5.81;74.87
71764;BME280;59602;52.142;5.408;2023-03-04T00:03:27;102832.66;;;5.84;75.16
71764;BME280;59602;52.142;5.408;2023-03-04T00:05:53;102824.56;;;5.84;75.42
71764;BME280;59602;52.142;5.408;2023-03-04T00:08:20;102827.56;;;5.82;75.45
71764;BME280;59602;52.142;5.408;2023-03-04T00:10:49;102831.06;;;5.83;75.17
71764;BME280;59602;52.142;5.408;2023-03-04T00:13:16;102832.66;;;5.84;75.25
71764;BME280;59602;52.142;5.408;2023-03-04T00:15:45;102825.69;;;5.83;75.58
71764;BME280;59602;52.142;5.408;2023-03-04T00:18:11;102833.28;;;5.81;75.35
71764;BME280;59602;52.142;5.408;2023-03-04T00:20:38;102834.06;;;5.81;75.51
71764;BME280;59602;52.142;5.408;2023-03-04T00:23:05;102828.44;;;5.78;75.73
71764;BME280;59602;52.142;5.408;2023-03-04T00:25:33;102829.28;;;5.78;75.80
71764;BME280;59602;52.142;5.408;2023-03-04T00:27:59;102829.78;;;5.80;75.71
71764;BME280;59602;52.142;5.408;2023-03-04T00:30:26;102822.75;;;5.79;75.88
71764;BME280;59602;52.142;5.408;2023-03-04T00:32:54;102828.94;;;5.80;75.75
71764;BME280;59602;52.142;5.408;2023-03-04T00:35:21;102828.94;;;5.80;76.48
71764;BME280;59602;52.142;5.408;2023-03-04T00:37:47;102835.16;;;5.80;76.01
71764;BME280;59602;52.142;5.408;2023-03-04T00:40:14;102833.56;;;5.79;76.18
71764;BME280;59602;52.142;5.408;2023-03-04T00:42:44;102838.66;;;5.81;76.38
71764;BME280;59602;52.142;5.408;2023-03-04T00:45:11;102830.56;;;5.81;76.53
71764;BME280;59602;52.142;5.408;2023-03-04T00:47:38;102825.97;;;5.81;76.54
71764;BME280;59602;52.142;5.408;2023-03-04T00:50:08;102830.25;;;5.82;76.78
71764;BME280;59602;52.142;5.408;2023-03-04T00:52:35;102824.84;;;5.82;76.97
71764;BME280;59602;52.142;5.408;2023-03-04T00:55:25;102824.06;;;5.82;76.80
71764;BME280;59602;52.142;5.408;2023-03-04T00:57:52;102831.66;;;5.80;76.98
71764;BME280;59602;52.142;5.408;2023-03-04T01:00:21;102833.84;;;5.78;77.09
71764;BME280;59602;52.142;5.408;2023-03-04T01:02:50;102832.25;;;5.77;77.30
71764;BME280;59602;52.142;5.408;2023-03-04T01:05:25;102840.06;;;5.78;77.02
71764;BME280;59602;52.142;5.408;2023-03-04T01:07:52;102835.47;;;5.79;77.38
71764;BME280;59602;52.142;5.408;2023-03-04T01:10:22;102833.06;;;5.77;77.16
71764;BME280;59602;52.142;5.408;2023-03-04T01:12:50;102827.16;;;5.75;76.90
71764;BME280;59602;52.142;5.408;2023-03-04T01:15:21;102827.16;;;5.75;77.15
71764;BME280;59602;52.142;5.408;2023-03-04T01:17:49;102835.75;;;5.77;77.19
71764;BME280;59602;52.142;5.408;2023-03-04T01:20:16;102828.44;;;5.78;77.23
71764;BME280;59602;52.142;5.408;2023-03-04T01:22:45;102827.66;;;5.77;77.64
71764;BME280;59602;52.142;5.408;2023-03-04T01:25:14;102825.25;;;5.76;77.67
71764;BME280;59602;52.142;5.408;2023-03-04T01:27:41;102826.34;;;5.75;77.14
71764;BME280;59602;52.142;5.408;2023-03-04T01:30:09;102819.66;;;5.72;77.46
71764;BME280;59602;52.142;5.408;2023-03-04T01:32:36;102821.25;;;5.73;77.51
71764;BME280;59602;52.142;5.408;2023-03-04T01:35:03;102814.25;;;5.72;77.29
71764;BME280;59602;52.142;5.408;2023-03-04T01:37:32;102806.66;;;5.74;76.99
71764;BME280;59602;52.142;5.408;2023-03-04T01:39:59;102808.56;;;5.74;76.60
71764;BME280;59602;52.142;5.408;2023-03-04T01:42:29;102811.28;;;5.74;76.35
71764;BME280;59602;52.142;5.408;2023-03-04T01:44:58;102804.25;;;5.73;76.77
71764;BME280;59602;52.142;5.408;2023-03-04T01:47:28;102803.97;;;5.74;76.43
71764;BME280;59602;52.142;5.408;2023-03-04T01:50:00;102798.84;;;5.73;76.39
71764;BME280;59602;52.142;5.408;2023-03-04T01:52:29;102793.47;;;5.73;75.95
71764;BME280;59602;52.142;5.408;2023-03-04T01:54:56;102786.97;;;5.74;76.14
71764;BME280;59602;52.142;5.408;2023-03-04T01:57:25;102787.28;;;5.72;75.46
71764;BME280;59602;52.142;5.408;2023-03-04T02:00:18;102788.06;;;5.73;75.87
71764;BME280;59602;52.142;5.408;2023-03-04T02:02:47;102781.88;;;5.72;75.64
71764;BME280;59602;52.142;5.408;2023-03-04T02:05:18;102783.47;;;5.73;75.66
71764;BME280;59602;52.142;5.408;2023-03-04T02:07:45;102773.47;;;5.74;75.56
71764;BME280;59602;52.142;5.408;2023-03-04T02:10:12;102772.66;;;5.73;75.26
71764;BME280;59602;52.142;5.408;2023-03-04T02:12:41;102771.56;;;5.74;75.53
71764;BME280;59602;52.142;5.408;2023-03-04T02:17:39;102764.88;;;5.72;75.36
71764;BME280;59602;52.142;5.408;2023-03-04T02:20:15;102759.50;;;5.72;75.09
71764;BME280;59602;52.142;5.408;2023-03-04T02:25:35;102768.09;;;5.74;75.10
71764;BME280;59602;52.142;5.408;2023-03-04T02:28:05;102754.09;;;5.72;75.40
71764;BME280;59602;52.142;5.408;2023-03-04T02:30:31;102744.38;;;5.71;75.01
71764;BME280;59602;52.142;5.408;2023-03-04T02:32:58;102752.75;;;5.69;75.23
71764;BME280;59602;52.142;5.408;2023-03-04T02:35:26;102753.88;;;5.68;75.23
71764;BME280;59602;52.142;5.408;2023-03-04T02:37:53;102748.47;;;5.68;75.26
71764;BME280;59602;52.142;5.408;2023-03-04T02:40:24;102744.97;;;5.68;75.52
71764;BME280;59602;52.142;5.408;2023-03-04T02:42:52;102742.78;;;5.70;75.32
71764;BME280;59602;52.142;5.408;2023-03-04T02:47:56;102741.16;;;5.69;75.16
71764;BME280;59602;52.142;5.408;2023-03-04T02:50:23;102743.38;;;5.67;75.22
71764;BME280;59602;52.142;5.408;2023-03-04T02:52:51;102744.19;;;5.67;75.15
71764;BME280;59602;52.142;5.408;2023-03-04T02:55:19;102732.56;;;5.67;75.32
71764;BME280;59602;52.142;5.408;2023-03-04T02:57:46;102730.97;;;5.66;75.14
71764;BME280;59602;52.142;5.408;2023-03-04T03:00:16;102739.38;;;5.64;74.52
71764;BME280;59602;52.142;5.408;2023-03-04T03:02:43;102735.88;;;5.64;74.05
71764;BME280;59602;52.142;5.408;2023-03-04T03:05:18;102735.88;;;5.64;73.88
71764;BME280;59602;52.142;5.408;2023-03-04T03:07:45;102731.56;;;5.62;73.89
71764;BME280;59602;52.142;5.408;2023-03-04T03:10:13;102729.69;;;5.63;73.89
71764;BME280;59602;52.142;5.408;2023-03-04T03:12:40;102728.06;;;5.62;73.56
71764;BME280;59602;52.142;5.408;2023-03-04T03:15:07;102725.38;;;5.62;73.77
71764;BME280;59602;52.142;5.408;2023-03-04T03:17:35;102715.19;;;5.59;73.94
71764;BME280;59602;52.142;5.408;2023-03-04T03:20:02;102719.19;;;5.61;74.09
71764;BME280;59602;52.142;5.408;2023-03-04T03:22:33;102716.50;;;5.61;73.61
71764;BME280;59602;52.142;5.408;2023-03-04T03:25:01;102722.16;;;5.60;73.72
71764;BME280;59602;52.142;5.408;2023-03-04T03:27:28;102714.91;;;5.60;73.96
71764;BME280;59602;52.142;5.408;2023-03-04T03:29:55;102713.78;;;5.61;74.23
71764;BME280;59602;52.142;5.408;2023-03-04T03:32:22;102708.09;;;5.63;74.24
71764;BME280;59602;52.142;5.408;2023-03-04T03:34:51;102714.59;;;5.62;74.45
71764;BME280;59602;52.142;5.408;2023-03-04T03:37:20;102708.69;;;5.60;74.55
71764;BME280;59602;52.142;5.408;2023-03-04T03:39:46;102714.91;;;5.60;74.35
71764;BME280;59602;52.142;5.408;2023-03-04T03:42:13;102706.81;;;5.60;74.90
71764;BME280;59602;52.142;5.408;2023-03-04T03:44:39;102712.19;;;5.60;74.47
71764;BME280;59602;52.142;5.408;2023-03-04T03:47:06;102713.78;;;5.61;74.74
71764;BME280;59602;52.142;5.408;2023-03-04T03:49:33;102714.28;;;5.64;74.67
71764;BME280;59602;52.142;5.408;2023-03-04T03:52:01;102710.47;;;5.65;74.76
71764;BME280;59602;52.142;5.408;2023-03-04T03:54:28;102705.09;;;5.65;75.11
71764;BME280;59602;52.142;5.408;2023-03-04T03:56:55;102714.59;;;5.62;75.16
71764;BME280;59602;52.142;5.408;2023-03-04T03:59:23;102714.59;;;5.62;75.93
71764;BME280;59602;52.142;5.408;2023-03-04T04:01:54;102718.38;;;5.61;76.03
71764;BME280;59602;52.142;5.408;2023-03-04T04:04:23;102718.91;;;5.63;76.26
71764;BME280;59602;52.142;5.408;2023-03-04T04:06:50;102713.78;;;5.61;76.77
71764;BME280;59602;52.142;5.408;2023-03-04T04:09:31;102712.50;;;5.59;77.27
71764;BME280;59602;52.142;5.408;2023-03-04T04:12:04;102715.19;;;5.59;77.69
71764;BME280;59602;52.142;5.408;2023-03-04T04:14:34;102723.00;;;5.60;78.14
71764;BME280;59602;52.142;5.408;2023-03-04T04:17:00;102725.47;;;5.57;78.42
71764;BME280;59602;52.142;5.408;2023-03-04T04:19:28;102716.59;;;5.56;78.52
71764;BME280;59602;52.142;5.408;2023-03-04T04:21:55;102714.19;;;5.55;78.37
71764;BME280;59602;52.142;5.408;2023-03-04T04:24:24;102712.09;;;5.52;78.14
71764;BME280;59602;52.142;5.408;2023-03-04T04:26:52;102718.28;;;5.52;78.32
71764;BME280;59602;52.142;5.408;2023-03-04T04:29:22;102720.19;;;5.52;78.07
71764;BME280;59602;52.142;5.408;2023-03-04T04:31:49;102721.78;;;5.53;77.92
71764;BME280;59602;52.142;5.408;2023-03-04T04:34:16;102722.56;;;5.53;78.27
71764;BME280;59602;52.142;5.408;2023-03-04T04:36:44;102713.69;;;5.53;77.94
71764;BME280;59602;52.142;5.408;2023-03-04T04:39:11;102717.78;;;5.50;78.00
71764;BME280;59602;52.142;5.408;2023-03-04T04:41:43;102718.28;;;5.52;78.02
71764;BME280;59602;52.142;5.408;2023-03-04T04:44:12;102722.56;;;5.53;77.99
71764;BME280;59602;52.142;5.408;2023-03-04T04:46:39;102723.97;;;5.51;77.73
71764;BME280;59602;52.142;5.408;2023-03-04T04:49:06;102722.88;;;5.52;77.28
71764;BME280;59602;52.142;5.408;2023-03-04T04:51:35;102725.59;;;5.52;77.15
71764;BME280;59602;52.142;5.408;2023-03-04T04:54:03;102727.16;;;5.53;76.86
71764;BME280;59602;52.142;5.408;2023-03-04T04:56:31;102719.06;;;5.53;77.04
71764;BME280;59602;52.142;5.408;2023-03-04T04:59:03;102719.06;;;5.53;76.83
71764;BME280;59602;52.142;5.408;2023-03-04T05:01:33;102722.56;;;5.53;76.68
71764;BME280;59602;52.142;5.408;2023-03-04T05:04:08;102719.06;;;5.53;76.64
71764;BME280;59602;52.142;5.408;2023-03-04T05:06:35;102723.97;;;5.51;75.92
71764;BME280;59602;52.142;5.408;2023-03-04T05:09:01;102714.28;;;5.50;76.14
71764;BME280;59602;52.142;5.408;2023-03-04T05:11:30;102721.25;;;5.51;76.18
71764;BME280;59602;52.142;5.408;2023-03-04T05:14:00;102718.28;;;5.52;76.29
71764;BME280;59602;52.142;5.408;2023-03-04T05:16:27;102708.00;;;5.54;76.82
71764;BME280;59602;52.142;5.408;2023-03-04T05:18:54;102713.69;;;5.53;77.25
71764;BME280;59602;52.142;5.408;2023-03-04T05:21:21;102713.69;;;5.53;76.95
71764;BME280;59602;52.142;5.408;2023-03-04T05:23:47;102718.00;;;5.54;77.05
71764;BME280;59602;52.142;5.408;2023-03-04T05:26:16;102718.28;;;5.52;77.25
71764;BME280;59602;52.142;5.408;2023-03-04T05:28:44;102715.06;;;5.50;77.51
71764;BME280;59602;52.142;5.408;2023-03-04T05:31:13;102716.19;;;5.49;77.41
71764;BME280;59602;52.142;5.408;2023-03-04T05:33:40;102718.56;;;5.51;77.48
71764;BME280;59602;52.142;5.408;2023-03-04T05:36:07;102714.78;;;5.52;77.90
71764;BME280;59602;52.142;5.408;2023-03-04T05:38:34;102717.16;;;5.53;77.84
71764;BME280;59602;52.142;5.408;2023-03-04T05:41:04;102723.38;;;5.54;78.01
71764;BME280;59602;52.142;5.408;2023-03-04T05:43:32;102718.78;;;5.54;78.04
71764;BME280;59602;52.142;5.408;2023-03-04T05:46:02;102716.88;;;5.55;78.47
71764;BME280;59602;52.142;5.408;2023-03-04T05:48:30;102719.56;;;5.55;78.60
71764;BME280;59602;52.142;5.408;2023-03-04T05:50:59;102717.16;;;5.53;78.41
71764;BME280;59602;52.142;5.408;2023-03-04T05:53:28;102723.69;;;5.52;79.04
71764;BME280;59602;52.142;5.408;2023-03-04T05:55:55;102716.38;;;5.53;78.67
71764;BME280;59602;52.142;5.408;2023-03-04T05:58:25;102712.88;;;5.52;79.47
71764;BME280;59602;52.142;5.408;2023-03-04T06:00:52;102715.88;;;5.51;79.52
71764;BME280;59602;52.142;5.408;2023-03-04T06:03:20;102715.88;;;5.51;79.55
71764;BME280;59602;52.142;5.408;2023-03-04T06:05:49;102720.19;;;5.52;79.68
71764;BME280;59602;52.142;5.408;2023-03-04T06:08:17;102711.25;;;5.51;79.64
71764;BME280;59602;52.142;5.408;2023-03-04T06:10:46;102716.66;;;5.51;80.09
71764;BME280;59602;52.142;5.408;2023-03-04T06:13:13;102715.88;;;5.51;79.55
71764;BME280;59602;52.142;5.408;2023-03-04T06:15:41;102710.19;;;5.52;79.81
71764;BME280;59602;52.142;5.408;2023-03-04T06:18:08;102713.69;;;5.53;79.68
71764;BME280;59602;52.142;5.408;2023-03-04T06:20:43;102713.69;;;5.53;80.10
71764;BME280;59602;52.142;5.408;2023-03-04T06:23:12;102717.16;;;5.53;80.13
71764;BME280;59602;52.142;5.408;2023-03-04T06:25:39;102715.59;;;5.52;79.94
71764;BME280;59602;52.142;5.408;2023-03-04T06:28:06;102719.06;;;5.53;80.13
71764;BME280;59602;52.142;5.408;2023-03-04T06:30:33;102716.66;;;5.51;80.18
71764;BME280;59602;52.142;5.408;2023-03-04T06:32:59;102718.56;;;5.51;80.63
71764;BME280;59602;52.142;5.408;2023-03-04T06:35:26;102712.66;;;5.49;80.80
71764;BME280;59602;52.142;5.408;2023-03-04T06:37:52;102725.88;;;5.50;80.87
71764;BME280;59602;52.142;5.408;2023-03-04T06:40:19;102720.47;;;5.50;80.90
71764;BME280;59602;52.142;5.408;2023-03-04T06:42:46;102727.44;;;5.51;81.02
71764;BME280;59602;52.142;5.408;2023-03-04T06:45:12;102723.38;;;5.54;81.07
71764;BME280;59602;52.142;5.408;2023-03-04T06:47:39;102730.66;;;5.53;81.32
71764;BME280;59602;52.142;5.408;2023-03-04T06:50:06;102726.88;;;5.54;81.53
71764;BME280;59602;52.142;5.408;2023-03-04T06:52:33;102730.38;;;5.55;81.79
71764;BME280;59602;52.142;5.408;2023-03-04T06:55:00;102723.06;;;5.55;81.18
71764;BME280;59602;52.142;5.408;2023-03-04T06:57:27;102726.88;;;5.54;81.89
71764;BME280;59602;52.142;5.408;2023-03-04T06:59:54;102725.25;;;5.53;81.43
71764;BME280;59602;52.142;5.408;2023-03-04T07:02:21;102737.66;;;5.54;81.76
71764;BME280;59602;52.142;5.408;2023-03-04T07:04:48;102736.28;;;5.57;81.48
71764;BME280;59602;52.142;5.408;2023-03-04T07:07:16;102733.28;;;5.58;81.57
71764;BME280;59602;52.142;5.408;2023-03-04T07:09:43;102739.97;;;5.61;81.31
71764;BME280;59602;52.142;5.408;2023-03-04T07:12:10;102740.25;;;5.59;81.47
71764;BME280;59602;52.142;5.408;2023-03-04T07:14:36;102753.25;;;5.57;81.79
71764;BME280;59602;52.142;5.408;2023-03-04T07:17:03;102738.47;;;5.55;82.38
71764;BME280;59602;52.142;5.408;2023-03-04T07:19:29;102735.47;;;5.56;82.67
71764;BME280;59602;52.142;5.408;2023-03-04T07:21:56;102738.97;;;5.57;82.82
71764;BME280;59602;52.142;5.408;2023-03-04T07:24:23;102741.38;;;5.58;83.31
71764;BME280;59602;52.142;5.408;2023-03-04T07:26:49;102748.34;;;5.59;83.54
71764;BME280;59602;52.142;5.408;2023-03-04T07:29:16;102747.75;;;5.62;83.50
71764;BME280;59602;52.142;5.408;2023-03-04T07:31:43;102741.78;;;5.66;83.10
71764;BME280;59602;52.142;5.408;2023-03-04T07:34:12;102739.47;;;5.73;83.66
71764;BME280;59602;52.142;5.408;2023-03-04T07:36:39;102743.19;;;5.77;83.25
71764;BME280;59602;52.142;5.408;2023-03-04T07:39:06;102741.56;;;5.76;83.52
71764;BME280;59602;52.142;5.408;2023-03-04T07:41:33;102745.88;;;5.77;83.83
71764;BME280;59602;52.142;5.408;2023-03-04T07:44:05;102749.59;;;5.81;83.81
71764;BME280;59602;52.142;5.408;2023-03-04T07:46:32;102745.50;;;5.83;84.00
71764;BME280;59602;52.142;5.408;2023-03-04T07:48:59;102750.28;;;5.87;84.20
71764;BME280;59602;52.142;5.408;2023-03-04T07:51:26;102755.88;;;5.90;84.38
71764;BME280;59602;52.142;5.408;2023-03-04T07:53:56;102749.88;;;5.93;84.07
71764;BME280;59602;52.142;5.408;2023-03-04T07:56:25;102751.72;;;5.98;84.22
71764;BME280;59602;52.142;5.408;2023-03-04T07:58:52;102751.63;;;6.03;83.93
71764;BME280;59602;52.142;5.408;2023-03-04T08:01:22;102756.13;;;6.08;84.28
71764;BME280;59602;52.142;5.408;2023-03-04T08:03:48;102765.53;;;6.10;83.66
71764;BME280;59602;52.142;5.408;2023-03-04T08:06:17;102758.81;;;6.08;83.70
71764;BME280;59602;52.142;5.408;2023-03-04T08:08:46;102758.72;;;6.13;83.88
71764;BME280;59602;52.142;5.408;2023-03-04T08:11:16;102762.09;;;6.18;83.71
71764;BME280;59602;52.142;5.408;2023-03-04T08:13:44;102766.41;;;6.19;83.61
71764;BME280;59602;52.142;5.408;2023-03-04T08:16:12;102764.22;;;6.21;83.60
71764;BME280;59602;52.142;5.408;2023-03-04T08:18:44;102774.09;;;6.26;83.09
71764;BME280;59602;52.142;5.408;2023-03-04T08:21:14;102769.50;;;6.27;83.83
71764;BME280;59602;52.142;5.408;2023-03-04T08:23:41;102773.00;;;6.27;84.26
71764;BME280;59602;52.142;5.408;2023-03-04T08:26:11;102771.19;;;6.22;85.25
71764;BME280;59602;52.142;5.408;2023-03-04T08:28:39;102767.72;;;6.22;85.30
71764;BME280;59602;52.142;5.408;2023-03-04T08:31:06;102767.09;;;6.25;85.75
71764;BME280;59602;52.142;5.408;2023-03-04T08:33:33;102766.31;;;6.24;85.98
71764;BME280;59602;52.142;5.408;2023-03-04T08:36:00;102767.91;;;6.26;86.01
71764;BME280;59602;52.142;5.408;2023-03-04T08:38:26;102774.00;;;6.31;86.18
71764;BME280;59602;52.142;5.408;2023-03-04T08:40:55;102771.38;;;6.40;85.53
71764;BME280;59602;52.142;5.408;2023-03-04T08:43:22;102770.19;;;6.46;85.10
71764;BME280;59602;52.142;5.408;2023-03-04T08:45:49;102771.47;;;6.49;84.65
71764;BME280;59602;52.142;5.408;2023-03-04T08:48:18;102778.97;;;6.52;84.53
71764;BME280;59602;52.142;5.408;2023-03-04T08:50:45;102772.34;;;6.58;84.58
71764;BME280;59602;52.142;5.408;2023-03-04T08:53:13;102780.66;;;6.61;84.84
71764;BME280;59602;52.142;5.408;2023-03-04T08:55:40;102772.19;;;6.54;84.67
71764;BME280;59602;52.142;5.408;2023-03-04T08:58:08;102769.47;;;6.54;85.02
71764;BME280;59602;52.142;5.408;2023-03-04T09:00:40;102782.66;;;6.56;85.33
71764;BME280;59602;52.142;5.408;2023-03-04T09:03:11;102772.06;;;6.59;85.80
71764;BME280;59602;52.142;5.408;2023-03-04T09:05:38;102775.75;;;6.63;86.12
71764;BME280;59602;52.142;5.408;2023-03-04T09:08:06;102773.44;;;6.71;85.86
71764;BME280;59602;52.142;5.408;2023-03-04T09:10:33;102775.09;;;6.80;86.62
71764;BME280;59602;52.142;5.408;2023-03-04T09:12:59;102764.53;;;6.93;86.59
71764;BME280;59602;52.142;5.408;2023-03-04T09:15:27;102768.53;;;6.95;85.90
71764;BME280;59602;52.142;5.408;2023-03-04T09:17:54;102777.75;;;6.94;86.12
71764;BME280;59602;52.142;5.408;2023-03-04T09:20:23;102767.41;;;6.96;86.25
71764;BME280;59602;52.142;5.408;2023-03-04T09:22:49;102767.47;;;7.05;86.37
71764;BME280;59602;52.142;5.408;2023-03-04T09:25:16;102768.78;;;7.07;86.13
71764;BME280;59602;52.142;5.408;2023-03-04T09:27:43;102770.88;;;7.11;85.82
71764;BME280;59602;52.142;5.408;2023-03-04T09:30:10;102776.59;;;7.09;85.47
71764;BME280;59602;52.142;5.408;2023-03-04T09:32:37;102767.69;;;7.09;85.63
71764;BME280;59602;52.142;5.408;2023-03-04T09:35:04;102776.88;;;7.07;85.66
71764;BME280;59602;52.142;5.408;2023-03-04T09:37:31;102770.19;;;7.05;85.73
71764;BME280;59602;52.142;5.408;2023-03-04T09:39:58;102773.88;;;7.09;86.31
71764;BME280;59602;52.142;5.408;2023-03-04T09:42:29;102760.72;;;7.16;85.79
71764;BME280;59602;52.142;5.408;2023-03-04T09:44:59;102758.69;;;7.22;85.41
71764;BME280;59602;52.142;5.408;2023-03-04T09:47:28;102755.69;;;7.23;85.09
71764;BME280;59602;52.142;5.408;2023-03-04T09:49:57;102760.84;;;7.34;85.06
71764;BME280;59602;52.142;5.408;2023-03-04T09:52:49;102757.56;;;7.45;84.73
71764;BME280;59602;52.142;5.408;2023-03-04T09:55:22;102761.72;;;7.52;84.23
71764;BME280;59602;52.142;5.408;2023-03-04T10:00:34;102750.50;;;7.67;83.94
71764;BME280;59602;52.142;5.408;2023-03-04T10:05:41;102742.72;;;7.74;83.25
71764;BME280;59602;52.142;5.408;2023-03-04T10:08:34;102744.81;;;7.77;82.86
71764;BME280;59602;52.142;5.408;2023-03-04T10:11:08;102742.22;;;7.72;82.48
71764;BME280;59602;52.142;5.408;2023-03-04T10:13:49;102735.38;;;7.66;83.19
71764;BME280;59602;52.142;5.408;2023-03-04T10:16:21;102739.63;;;7.58;83.40
71764;BME280;59602;52.142;5.408;2023-03-04T10:18:55;102743.47;;;7.57;83.50
71764;BME280;59602;52.142;5.408;2023-03-04T10:21:32;102730.53;;;7.54;83.65
71764;BME280;59602;52.142;5.408;2023-03-04T10:24:11;102732.63;;;7.57;83.57
71764;BME280;59602;52.142;5.408;2023-03-04T10:26:41;102728.81;;;7.58;82.99
71764;BME280;59602;52.142;5.408;2023-03-04T10:29:15;102729.75;;;7.54;82.91
71764;BME280;59602;52.142;5.408;2023-03-04T10:31:43;102716.25;;;7.62;82.70
71764;BME280;59602;52.142;5.408;2023-03-04T10:34:12;102716.81;;;7.82;82.75
71764;BME280;59602;52.142;5.408;2023-03-04T10:37:15;102723.56;;;8.02;81.22
71764;BME280;59602;52.142;5.408;2023-03-04T10:39:52;102730.56;;;8.11;80.60
71764;BME280;59602;52.142;5.408;2023-03-04T10:42:25;102719.25;;;8.09;80.27
71764;BME280;59602;52.142;5.408;2023-03-04T10:44:56;102714.47;;;8.06;79.94
71764;BME280;59602;52.142;5.408;2023-03-04T10:47:25;102731.69;;;8.10;79.95
71764;BME280;59602;52.142;5.408;2023-03-04T10:49:55;102720.72;;;8.24;79.41
71764;BME280;59602;52.142;5.408;2023-03-04T10:52:27;102716.25;;;8.37;79.28
71764;BME280;59602;52.142;5.408;2023-03-04T10:55:16;102725.38;;;8.41;79.09
71764;BME280;59602;52.142;5.408;2023-03-04T10:57:47;102722.84;;;8.45;79.05
71764;BME280;59602;52.142;5.408;2023-03-04T11:02:45;102716.41;;;8.32;79.39
71764;BME280;59602;52.142;5.408;2023-03-04T11:07:55;102720.72;;;8.16;79.11
71764;BME280;59602;52.142;5.408;2023-03-04T11:10:38;102724.03;;;8.13;79.95
71764;BME280;59602;52.142;5.408;2023-03-04T11:13:20;102722.13;;;8.04;81.02
71764;BME280;59602;52.142;5.408;2023-03-04T11:16:04;102721.31;;;7.95;82.41
71764;BME280;59602;52.142;5.408;2023-03-04T11:18:52;102715.22;;;7.89;84.09
71764;BME280;59602;52.142;5.408;2023-03-04T11:21:24;102714.09;;;7.82;84.91
71764;BME280;59602;52.142;5.408;2023-03-04T11:24:02;102719.97;;;7.75;86.27
71764;BME280;59602;52.142;5.408;2023-03-04T11:26:35;102717.06;;;7.72;86.97
71764;BME280;59602;52.142;5.408;2023-03-04T11:29:13;102717.38;;;7.61;87.74
71764;BME280;59602;52.142;5.408;2023-03-04T11:32:06;102728.94;;;7.53;88.25
71764;BME280;59602;52.142;5.408;2023-03-04T11:34:45;102717.50;;;7.56;88.87
71764;BME280;59602;52.142;5.408;2023-03-04T11:37:38;102720.81;;;7.53;88.24
71764;BME280;59602;52.142;5.408;2023-03-04T11:40:32;102704.44;;;7.58;88.33
71764;BME280;59602;52.142;5.408;2023-03-04T11:43:27;102712.25;;;7.60;87.86
71764;BME280;59602;52.142;5.408;2023-03-04T11:49:47;102698.78;;;7.77;87.30
71764;BME280;59602;52.142;5.408;2023-03-04T11:52:28;102697.34;;;7.80;86.72
71764;BME280;59602;52.142;5.408;2023-03-04T11:57:55;102692.47;;;7.99;86.93
71764;BME280;59602;52.142;5.408;2023-03-04T12:00:38;102686.75;;;8.18;86.97
71764;BME280;59602;52.142;5.408;2023-03-04T12:06:13;102681.97;;;8.32;84.47
71764;BME280;59602;52.142;5.408;2023-03-04T12:08:59;102681.66;;;8.25;83.07
71764;BME280;59602;52.142;5.408;2023-03-04T12:11:45;102674.78;;;8.19;82.59
71764;BME280;59602;52.142;5.408;2023-03-04T12:14:26;102670.97;;;8.11;81.46
71764;BME280;59602;52.142;5.408;2023-03-04T12:17:11;102682.28;;;8.05;81.69
71764;BME280;59602;52.142;5.408;2023-03-04T12:20:07;102682.91;;;7.93;81.01
71764;BME280;59602;52.142;5.408;2023-03-04T12:22:50;102680.31;;;7.79;81.16
71764;BME280;59602;52.142;5.408;2023-03-04T12:28:02;102678.22;;;7.76;80.74
71764;BME280;59602;52.142;5.408;2023-03-04T12:30:50;102677.63;;;7.79;80.90
71764;BME280;59602;52.142;5.408;2023-03-04T12:33:37;102675.84;;;7.83;80.29
71764;BME280;59602;52.142;5.408;2023-03-04T12:44:18;102655.81;;;8.28;78.68
71764;BME280;59602;52.142;5.408;2023-03-04T12:52:19;102653.59;;;8.39;77.37
71764;BME280;59602;52.142;5.408;2023-03-04T12:55:02;102648.22;;;8.47;76.63
71764;BME280;59602;52.142;5.408;2023-03-04T12:57:33;102647.72;;;8.54;76.43
71764;BME280;59602;52.142;5.408;2023-03-04T13:03:01;102637.06;;;8.49;75.78
71764;BME280;59602;52.142;5.408;2023-03-04T13:05:47;102646.59;;;8.38;74.88
71764;BME280;59602;52.142;5.408;2023-03-04T13:08:40;102643.72;;;8.17;75.57
71764;BME280;59602;52.142;5.408;2023-03-04T13:14:07;102649.44;;;7.98;76.86
71764;BME280;59602;52.142;5.408;2023-03-04T13:16:40;102650.69;;;7.83;77.51
71764;BME280;59602;52.142;5.408;2023-03-04T13:22:51;102643.47;;;7.69;78.77
71764;BME280;59602;52.142;5.408;2023-03-04T13:25:37;102636.16;;;7.70;79.61
71764;BME280;59602;52.142;5.408;2023-03-04T13:38:36;102632.69;;;7.87;79.99
71764;BME280;59602;52.142;5.408;2023-03-04T13:43:39;102626.16;;;7.88;78.59
71764;BME280;59602;52.142;5.408;2023-03-04T13:49:00;102628.72;;;7.84;76.80
71764;BME280;59602;52.142;5.408;2023-03-04T13:51:39;102629.03;;;7.83;76.97
71764;BME280;59602;52.142;5.408;2023-03-04T13:54:31;102622.34;;;7.89;77.32
71764;BME280;59602;52.142;5.408;2023-03-04T13:57:35;102613.25;;;7.85;76.70
71764;BME280;59602;52.142;5.408;2023-03-04T14:00:24;102613.06;;;7.81;76.71
71764;BME280;59602;52.142;5.408;2023-03-04T14:02:51;102603.56;;;7.84;76.28
71764;BME280;59602;52.142;5.408;2023-03-04T14:05:32;102610.72;;;7.80;74.66
71764;BME280;59602;52.142;5.408;2023-03-04T14:08:23;102608.94;;;7.75;73.78
71764;BME280;59602;52.142;5.408;2023-03-04T14:13:56;102604.50;;;7.79;72.16
71764;BME280;59602;52.142;5.408;2023-03-04T14:16:38;102603.19;;;7.77;71.49
71764;BME280;59602;52.142;5.408;2023-03-04T14:22:24;102607.50;;;7.69;71.40
71764;BME280;59602;52.142;5.408;2023-03-04T14:25:01;102607.34;;;7.74;71.69
71764;BME280;59602;52.142;5.408;2023-03-04T14:27:48;102604.63;;;7.74;71.22
71764;BME280;59602;52.142;5.408;2023-03-04T14:30:24;102598.59;;;7.68;70.21
71764;BME280;59602;52.142;5.408;2023-03-04T14:33:14;102598.09;;;7.66;70.32
71764;BME280;59602;52.142;5.408;2023-03-04T14:35:57;102600.03;;;7.66;69.50